Avalon, TX (76623)

4:57 AM CDT on April 29, 2017 (GMT -0500)
Monolithic Domes | | Change Station

Elev 597 ft 32.20 °N, 96.89 °W | Updated 4 seconds ago

Mostly Cloudy
Mostly Cloudy
75.6 °F
Feels Like 78 °F
N
13.0
Wind Variable Wind from SE
Gusts 15.0 mph

Today
High -- | Low -- °F
--% Chance of Precip.
Yesterday
High -- | Low -- °F
Precip. -- in
Pressure 29.62 in
Visibility 5.0 miles
Clouds Scattered Clouds 1900 ft
Overcast 2700 ft
Heat Index 78 °F
Dew Point 57 °F
Humidity 52%
Rainfall 0.00 in
Snow Depth Not available.
6:42 AM 8:06 PM
Waxing Crescent, 12% visible
METAR KJWY 290935Z AUTO 14009KT 5SM BR SCT019 OVC027 23/22 A2962 RMK AO2 T02320215
Pressure 29.62 in
Visibility 5.0 miles
Clouds Scattered Clouds 1900 ft
Overcast 2700 ft
Heat Index 78 °F
Dew Point 57 °F
Humidity 52%
Rainfall 0.00 in
Snow Depth Not available.
6:42 AM 8:06 PM
Waxing Crescent, 12% visible
METAR KJWY 290935Z AUTO 14009KT 5SM BR SCT019 OVC027 23/22 A2962 RMK AO2 T02320215

Get Severe Weather Alerts

Thanks for signing up!

Be on the lookout for a verification email in your inbox.

You'll start receiving the daily forecast at 8 AM.

×

10-Day Weather Forecast

Almanac

Astronomy

Apr. 29, 2017 Rise Set
Actual Time
Civil Twilight
Nautical Twilight
Astronomical Twilight
Moon
Length of Visible Light
Length of Day
Tomorrow will be .
, % of the Moon is Illuminated

Today's Extremes

State Highs State Lows

Community

WunderPhotos

WunderBlog® & News

Nearby

Air Quality

  Air Quality AQ Index Pollutant
Not available.

Snow Depth

Station Depth Elevation

Earthquake Activity

City Distance Mag. Time & Date
Minimum magnitude displayed is 2.5.

Coastal Water Temperatures

Place Temperature

Stations

Nearby Weather Stations

Station Location Temp. Windchill Dew Point Humidity Wind Precip. Elev Updated Type
                   

Watches & Warnings

There are currently no watches in effect.